Archiv-/Tagesdaten

--Timestamp---	Temp	Chill	HIndex	Humid	Dewpt	 Wind 	HiWind	WindDir	Rain 	Barom	Solar	 ET  	 UV 
--------------	----	-----	------	-----	-----	------	------	-------	-----	-----	-----	-----	----
20110106 00:00	-5.9	-9.0	-5.9	72	-10.2	6	14	158	0.0	1013.2	0	0.000	0.0
20110106 00:05	-5.7	-8.8	-5.7	71	-10.1	6	16	158	0.0	1013.0	0	0.000	0.0
20110106 00:10	-5.5	-9.2	-5.5	71	-9.9	8	14	158	0.0	1013.0	0	0.000	0.0
20110106 00:15	-5.4	-5.4	-5.4	70	-10.0	5	11	158	0.0	1012.9	0	0.000	0.0
20110106 00:20	-5.4	-8.4	-5.4	70	-10.0	6	16	158	0.0	1012.8	0	0.000	0.0
20110106 00:25	-5.4	-8.4	-5.4	70	-10.0	6	11	158	0.0	1012.8	0	0.000	0.0
20110106 00:30	-5.3	-8.3	-5.3	70	-9.9	6	11	158	0.0	1012.8	0	0.000	0.0
20110106 00:35	-5.3	-9.0	-5.3	70	-9.9	8	16	158	0.0	1012.7	0	0.000	0.0
20110106 00:40	-5.3	-9.0	-5.3	70	-9.9	8	14	180	0.0	1012.6	0	0.000	0.0
20110106 00:45	-5.3	-5.3	-5.3	70	-9.9	5	13	158	0.0	1012.6	0	0.000	0.0
20110106 00:50	-5.3	-5.3	-5.3	70	-9.9	5	10	135	0.0	1012.5	0	0.000	0.0
20110106 00:55	-5.4	-5.4	-5.4	70	-10.0	5	10	158	0.0	1012.4	0	0.000	0.0
20110106 01:00	-5.4	-5.4	-5.4	70	-10.0	3	10	158	0.0	1012.3	0	0.025	0.0
20110106 01:05	-5.4	-5.4	-5.4	70	-10.0	5	8	158	0.0	1012.1	0	0.000	0.0
20110106 01:10	-5.5	-5.5	-5.5	71	-9.9	5	8	158	0.0	1012.0	0	0.000	0.0
20110106 01:15	-5.5	-5.5	-5.5	71	-9.9	0	3	158	0.0	1012.0	0	0.000	0.0
20110106 01:20	-5.7	-5.7	-5.7	71	-10.1	2	5	158	0.0	1012.0	0	0.000	0.0
20110106 01:25	-5.8	-5.8	-5.8	72	-10.1	2	5	158	0.0	1012.0	0	0.000	0.0
20110106 01:30	-5.9	-5.9	-5.9	72	-10.2	5	8	158	0.0	1012.0	0	0.000	0.0
20110106 01:35	-5.9	-5.9	-5.9	72	-10.2	3	8	158	0.0	1012.0	0	0.000	0.0
20110106 01:40	-6.0	-6.0	-6.0	72	-10.2	0	3	158	0.0	1011.9	0	0.000	0.0
20110106 01:45	-6.0	-6.0	-6.0	73	-10.0	0	3	158	0.0	1012.0	0	0.000	0.0
20110106 01:50	-6.0	-6.0	-6.0	73	-10.0	3	6	158	0.0	1012.0	0	0.000	0.0
20110106 01:55	-6.1	-6.1	-6.1	73	-10.1	3	6	158	0.0	1011.9	0	0.000	0.0
20110106 02:00	-6.0	-6.0	-6.0	73	-10.0	3	8	158	0.0	1011.9	0	0.000	0.0
20110106 02:05	-5.9	-5.9	-5.9	73	-10.0	5	8	158	0.0	1011.8	0	0.000	0.0
20110106 02:10	-5.8	-5.8	-5.8	72	-10.1	5	8	158	0.0	1011.8	-100000	0.000	0.0
20110106 02:15	-5.8	-5.8	-5.8	72	-10.0	5	10	180	0.0	1011.9	0	0.000	0.0
20110106 02:20	-5.8	-5.8	-5.8	72	-10.0	5	8	180	0.0	1011.8	0	0.000	0.0
20110106 02:25	-5.8	-5.8	-5.8	72	-10.0	5	6	180	0.0	1011.8	-100000	0.000	0.0
20110106 02:30	-5.8	-5.8	-5.8	72	-10.0	5	10	180	0.0	1011.6	0	0.000	0.0
20110106 02:35	-5.8	-5.8	-5.8	72	-10.1	5	10	180	0.0	1011.6	0	0.000	0.0
20110106 02:40	-5.8	-8.9	-5.8	72	-10.1	6	14	158	0.0	1011.4	0	0.000	0.0
20110106 02:45	-5.8	-9.6	-5.8	71	-10.2	8	16	158	0.0	1011.3	0	0.000	0.0
20110106 02:50	-5.7	-8.8	-5.7	72	-9.9	6	11	158	0.0	1011.2	0	0.000	0.0
20110106 02:55	-5.7	-5.7	-5.7	72	-9.9	5	11	180	0.0	1011.1	0	0.000	0.0
20110106 03:00	-5.7	-5.7	-5.7	72	-9.9	5	11	135	0.0	1011.0	0	0.025	0.0
20110106 03:05	-5.7	-8.8	-5.7	72	-9.9	6	16	135	0.0	1011.1	0	0.000	0.0
20110106 03:10	-5.8	-5.8	-5.8	72	-10.0	3	8	135	0.0	1011.2	0	0.000	0.0
20110106 03:15	-5.8	-5.8	-5.8	73	-9.8	2	11	135	0.0	1011.2	0	0.000	0.0
20110106 03:20	-5.8	-5.8	-5.8	73	-9.8	3	10	135	0.0	1011.1	0	0.000	0.0
20110106 03:25	-5.8	-5.8	-5.8	72	-10.1	3	6	135	0.0	1010.9	0	0.000	0.0
20110106 03:30	-5.9	-5.9	-5.9	72	-10.1	5	8	135	0.0	1010.9	0	0.000	0.0
20110106 03:35	-5.9	-5.9	-5.9	72	-10.1	5	8	135	0.0	1010.9	0	0.000	0.0
20110106 03:40	-5.8	-5.8	-5.8	72	-10.1	5	10	135	0.0	1010.7	0	0.000	0.0
20110106 03:45	-5.8	-5.8	-5.8	72	-10.0	3	8	158	0.0	1010.5	0	0.000	0.0
20110106 03:50	-5.8	-5.8	-5.8	72	-10.0	3	8	158	0.0	1010.5	0	0.000	0.0
20110106 03:55	-5.7	-5.7	-5.7	71	-10.1	3	8	158	0.0	1010.4	0	0.000	0.0
20110106 04:00	-5.7	-5.7	-5.7	71	-10.1	5	11	158	0.0	1010.4	0	0.025	0.0
20110106 04:05	-5.7	-8.7	-5.7	71	-10.1	6	13	135	0.0	1010.5	0	0.000	0.0
20110106 04:10	-5.7	-5.7	-5.7	71	-10.1	3	8	158	0.0	1010.5	0	0.000	0.0
20110106 04:15	-5.7	-5.7	-5.7	71	-10.1	2	8	158	0.0	1010.4	0	0.000	0.0
20110106 04:20	-5.7	-5.7	-5.7	71	-10.1	5	11	158	0.0	1010.3	0	0.000	0.0
20110106 04:25	-5.7	-8.7	-5.7	71	-10.1	6	11	135	0.0	1010.2	0	0.000	0.0
20110106 04:30	-5.7	-9.4	-5.7	71	-10.1	8	19	135	0.0	1010.1	0	0.000	0.0
20110106 04:35	-5.6	-9.3	-5.6	71	-10.0	8	18	135	0.0	1010.0	0	0.000	0.0
20110106 04:40	-5.6	-8.7	-5.6	71	-10.0	6	14	135	0.0	1010.0	0	0.000	0.0
20110106 04:45	-5.6	-5.6	-5.6	71	-10.0	5	14	180	0.0	1010.0	0	0.000	0.0
20110106 04:50	-5.4	-5.4	-5.4	70	-10.0	5	11	158	0.0	1010.0	0	0.000	0.0
20110106 04:55	-5.4	-8.4	-5.4	70	-10.0	6	14	158	0.0	1009.8	0	0.000	0.0
20110106 05:00	-5.4	-9.1	-5.4	70	-10.0	8	18	158	0.0	1009.6	0	0.025	0.0
20110106 05:05	-5.3	-9.6	-5.3	70	-9.9	10	19	158	0.0	1009.8	0	0.000	0.0
20110106 05:10	-5.3	-8.9	-5.3	70	-9.9	8	19	135	0.0	1009.7	0	0.000	0.0
20110106 05:15	-5.2	-8.8	-5.2	69	-10.0	8	19	158	0.0	1009.7	0	0.000	0.0
20110106 05:20	-5.1	-9.3	-5.1	69	-9.9	10	18	158	0.0	1009.7	0	0.000	0.0
20110106 05:25	-5.1	-9.7	-5.1	68	-10.0	11	24	158	0.0	1009.7	0	0.000	0.0
20110106 05:30	-5.1	-9.2	-5.1	68	-10.0	10	21	158	0.0	1009.7	0	0.000	0.0
20110106 05:35	-5.2	-9.4	-5.2	69	-10.0	10	18	158	0.0	1009.6	0	0.000	0.0
20110106 05:40	-5.2	-9.9	-5.2	69	-10.0	11	23	158	0.0	1009.4	0	0.000	0.0
20110106 05:45	-5.3	-9.5	-5.3	69	-10.1	10	18	158	0.0	1009.3	0	0.000	0.0
20110106 05:50	-5.3	-8.9	-5.3	69	-10.1	8	16	158	0.0	1009.4	0	0.000	0.0
20110106 05:55	-5.2	-9.4	-5.2	69	-10.0	10	19	158	0.0	1009.3	0	0.000	0.0
20110106 06:00	-5.2	-8.9	-5.2	69	-10.0	8	19	158	0.0	1009.4	0	0.025	0.0
20110106 06:05	-5.2	-8.1	-5.2	69	-10.0	6	13	158	0.0	1009.7	0	0.000	0.0
20110106 06:10	-5.2	-5.2	-5.2	69	-10.0	3	10	158	0.0	1009.7	-100000	0.000	0.0
20110106 06:15	-5.3	-5.3	-5.3	70	-9.9	2	6	158	0.0	1009.9	0	0.000	0.0
20110106 06:20	-5.3	-5.3	-5.3	70	-9.9	3	6	158	0.0	1010.0	0	0.000	0.0
20110106 06:25	-5.3	-5.3	-5.3	70	-9.9	2	6	158	0.0	1010.1	0	0.000	0.0
20110106 06:30	-5.4	-5.4	-5.4	71	-9.8	3	5	158	0.0	1010.2	0	0.000	0.0
20110106 06:35	-5.5	-5.5	-5.5	71	-9.9	3	11	248	0.0	1010.5	0	0.000	0.0
20110106 06:40	-5.7	-10.0	-5.7	71	-10.1	10	18	248	0.0	1011.2	0	0.000	0.0
20110106 06:45	-5.8	-8.9	-5.8	72	-10.0	6	10	248	0.0	1010.8	0	0.000	0.0
20110106 06:50	-5.7	-5.7	-5.7	73	-9.8	5	8	248	0.0	1010.9	0	0.000	0.0
20110106 06:55	-5.7	-5.7	-5.7	73	-9.7	3	6	248	0.0	1011.0	0	0.000	0.0
20110106 07:00	-5.6	-5.6	-5.6	73	-9.6	2	5	248	0.0	1011.0	0	0.025	0.0
20110106 07:05	-5.4	-5.4	-5.4	73	-9.5	3	8	248	0.0	1011.2	0	0.000	0.0
20110106 07:10	-5.3	-5.3	-5.3	73	-9.4	3	8	248	0.0	1011.0	0	0.000	0.0
20110106 07:15	-5.2	-5.2	-5.2	74	-9.1	3	6	248	0.0	1010.7	0	0.000	0.0
20110106 07:20	-5.2	-5.2	-5.2	73	-9.2	5	10	158	0.0	1010.5	0	0.000	0.0
20110106 07:25	-5.1	-8.1	-5.1	74	-9.0	6	16	135	0.0	1010.2	0	0.000	0.0
20110106 07:30	-5.0	-5.0	-5.0	73	-9.1	5	11	158	0.0	1010.3	0	0.000	0.0
20110106 07:35	-4.9	-4.9	-4.9	74	-8.8	5	11	135	0.0	1010.5	0	0.000	0.0
20110106 07:40	-4.8	-7.7	-4.8	74	-8.7	6	10	135	0.0	1010.1	0	0.000	0.0
20110106 07:45	-4.6	-7.5	-4.6	74	-8.5	6	11	158	0.0	1010.2	0	0.000	0.0
20110106 07:50	-4.5	-7.4	-4.5	73	-8.6	6	14	158	0.0	1010.3	0	0.000	0.0
20110106 07:55	-4.4	-7.3	-4.4	73	-8.5	6	11	158	0.0	1010.3	0	0.000	0.0
20110106 08:00	-4.4	-8.0	-4.4	74	-8.4	8	14	135	0.0	1010.0	0	0.025	0.0
20110106 08:05	-4.5	-8.6	-4.5	74	-8.4	10	18	135	0.0	1010.1	0	0.000	0.0
20110106 08:10	-4.4	-4.4	-4.4	75	-8.2	5	14	135	0.0	1010.3	0	0.000	0.0
20110106 08:15	-4.3	-4.3	-4.3	74	-8.3	2	6	225	0.0	1010.3	0	0.000	0.0
20110106 08:20	-4.3	-4.3	-4.3	74	-8.2	3	6	225	0.0	1010.3	3	0.000	0.0
20110106 08:25	-4.2	-4.2	-4.2	74	-8.1	3	8	135	0.0	1010.2	7	0.000	0.0
20110106 08:30	-4.1	-4.1	-4.1	74	-8.0	3	6	135	0.0	1010.4	11	0.000	0.0
20110106 08:35	-3.9	-3.9	-3.9	74	-7.9	3	6	135	0.0	1010.5	13	0.000	0.0
20110106 08:40	-3.8	-3.8	-3.8	74	-7.7	3	6	135	0.0	1010.5	18	0.000	0.0
20110106 08:45	-3.6	-3.6	-3.6	73	-7.7	3	10	180	0.0	1010.2	21	0.000	0.0
20110106 08:50	-3.3	-3.3	-3.3	73	-7.5	3	6	202	0.0	1010.6	24	0.000	0.0
20110106 08:55	-3.2	-3.2	-3.2	72	-7.5	2	5	202	0.0	1011.0	25	0.000	0.0
20110106 09:00	-3.0	-3.0	-3.0	72	-7.3	2	5	202	0.0	1011.2	22	0.000	0.0
20110106 09:05	-2.8	-2.8	-2.8	74	-6.8	5	14	292	0.0	1011.4	19	0.000	0.0
20110106 09:10	-2.8	-2.8	-2.8	75	-6.6	5	16	292	0.0	1011.9	19	0.000	0.0
20110106 09:15	-2.9	-5.5	-2.9	76	-6.5	6	11	315	0.0	1011.3	19	0.000	0.0
20110106 09:20	-2.9	-2.9	-2.9	77	-6.3	3	6	292	0.0	1012.0	20	0.000	0.0
20110106 09:25	-2.8	-2.8	-2.8	77	-6.3	0	2	270	0.0	1011.7	21	0.000	0.0
20110106 09:30	-2.8	-2.8	-2.8	77	-6.3	3	8	68	0.0	1011.8	24	0.000	0.0
20110106 09:35	-2.8	-2.8	-2.8	78	-6.1	3	6	112	0.0	1011.5	26	0.000	0.0
20110106 09:40	-2.7	-2.7	-2.7	78	-6.0	3	6	112	0.0	1011.8	26	0.000	0.0
20110106 09:45	-2.7	-2.7	-2.7	78	-6.0	3	6	135	0.0	1011.6	34	0.000	0.0
20110106 09:50	-2.6	-5.2	-2.6	79	-5.7	6	11	135	0.0	1011.3	41	0.000	0.0
20110106 09:55	-2.5	-5.1	-2.5	79	-5.6	6	14	135	0.0	1011.1	50	0.000	0.0
20110106 10:00	-2.3	-5.5	-2.3	79	-5.5	8	18	135	0.0	1011.0	59	0.025	0.0
20110106 10:05	-2.2	-5.9	-2.2	79	-5.4	10	16	135	0.0	1010.9	65	0.000	0.0
20110106 10:10	-2.1	-5.7	-2.1	78	-5.4	10	18	135	0.0	1010.7	66	0.000	0.0
20110106 10:15	-1.9	-5.0	-1.9	77	-5.4	8	19	158	0.0	1010.7	59	0.000	0.0
20110106 10:20	-1.8	-5.4	-1.8	77	-5.3	10	21	135	0.0	1010.7	51	0.000	0.0
20110106 10:25	-1.9	-5.5	-1.9	77	-5.4	10	19	135	0.0	1010.6	51	0.000	0.0
20110106 10:30	-1.9	-5.5	-1.9	77	-5.4	10	23	135	0.2	1010.6	56	0.000	0.0
20110106 10:35	-1.8	-4.9	-1.8	77	-5.3	8	18	158	0.0	1010.5	62	0.000	0.0
20110106 10:40	-1.7	-4.2	-1.7	78	-5.0	6	14	135	0.0	1010.5	60	0.000	0.0
20110106 10:45	-1.5	-5.0	-1.5	78	-4.8	10	19	158	0.0	1010.6	61	0.000	0.0
20110106 10:50	-1.3	-1.3	-1.3	78	-4.7	5	11	180	0.0	1010.5	55	0.000	0.0
20110106 10:55	-1.2	-4.1	-1.2	76	-4.8	8	14	158	0.0	1010.4	53	0.000	0.0
20110106 11:00	-1.0	-1.0	-1.0	76	-4.7	5	14	158	0.0	1010.2	54	0.025	0.0
20110106 11:05	-0.8	-3.6	-0.8	75	-4.6	8	14	158	0.0	1010.0	68	0.000	0.0
20110106 11:10	-0.4	-3.2	-0.4	73	-4.6	8	14	135	0.0	1009.9	83	0.000	0.0
20110106 11:15	-0.1	-2.3	-0.1	72	-4.5	6	18	135	0.0	1009.8	82	0.000	0.0
20110106 11:20	0.2	0.2	0.2	72	-4.3	3	10	180	0.0	1009.9	79	0.000	0.0
20110106 11:25	0.4	0.4	0.4	72	-4.0	3	6	158	0.0	1009.6	100	0.000	0.0
20110106 11:30	0.7	0.7	0.7	72	-3.8	5	10	158	0.0	1009.6	99	0.000	0.3
20110106 11:35	0.8	0.8	0.8	72	-3.6	2	6	158	0.0	1009.6	115	0.000	0.5
20110106 11:40	1.0	-1.6	1.0	72	-3.5	8	18	180	0.0	1009.3	118	0.000	0.5
20110106 11:45	1.1	-1.4	1.1	72	-3.4	8	16	158	0.0	1009.2	126	0.000	0.5
20110106 11:50	1.2	-0.8	1.2	71	-3.4	6	13	158	0.0	1009.2	129	0.000	0.5
20110106 11:55	1.2	-1.3	1.2	68	-4.0	8	19	158	0.0	1009.2	105	0.000	0.3
20110106 12:00	1.2	-2.2	1.2	68	-4.1	11	21	158	0.0	1009.3	105	0.051	0.5
20110106 12:05	1.2	-1.8	1.2	67	-4.3	10	18	158	0.0	1009.2	112	0.000	0.5
20110106 12:10	1.1	-1.4	1.1	66	-4.5	8	16	135	0.0	1009.2	102	0.000	0.4
20110106 12:15	1.2	-0.8	1.2	67	-4.3	6	11	158	0.0	1008.9	108	0.000	0.5
20110106 12:20	1.3	-0.6	1.3	67	-4.1	6	10	180	0.0	1008.9	137	0.000	0.6
20110106 12:25	1.4	-1.0	1.4	65	-4.4	8	16	202	0.0	1009.0	146	0.000	0.6
20110106 12:30	1.6	-2.3	1.6	63	-4.7	14	23	180	0.0	1009.0	129	0.000	0.6
20110106 12:35	1.7	-1.9	1.7	61	-5.0	13	23	180	0.0	1009.0	139	0.000	0.6
20110106 12:40	1.8	-0.6	1.8	61	-4.9	8	16	180	0.0	1008.9	123	0.000	0.5
20110106 12:45	1.9	0.0	1.9	62	-4.6	6	14	180	0.0	1008.8	128	0.000	0.5
20110106 12:50	2.0	-0.4	2.0	61	-4.7	8	16	180	0.0	1008.6	137	0.000	0.6
20110106 12:55	2.1	-0.3	2.1	61	-4.6	8	18	180	0.0	1008.4	167	0.000	0.6
20110106 13:00	2.3	0.5	2.3	61	-4.4	6	16	180	0.0	1008.3	203	0.076	0.7
20110106 13:05	2.6	0.8	2.6	61	-4.2	6	11	180	0.0	1008.3	174	0.000	0.7
20110106 13:10	2.7	0.4	2.7	61	-4.1	8	14	180	0.0	1008.4	139	0.000	0.6
20110106 13:15	2.7	1.0	2.7	60	-4.3	6	11	180	0.0	1008.4	127	0.000	0.6
20110106 13:20	2.8	-0.2	2.8	58	-4.6	11	21	158	0.0	1008.4	138	0.000	0.6
20110106 13:25	2.9	0.3	2.9	57	-4.7	10	19	180	0.0	1008.5	172	0.000	0.6
20110106 13:30	3.1	0.4	3.1	57	-4.6	10	21	158	0.0	1008.4	172	0.000	0.6
20110106 13:35	3.1	0.5	3.1	58	-4.3	10	19	202	0.0	1008.5	166	0.000	0.6
20110106 13:40	3.2	0.6	3.2	58	-4.3	10	16	180	0.0	1008.4	166	0.000	0.6
20110106 13:45	3.2	1.5	3.2	59	-4.0	6	11	180	0.0	1008.4	199	0.000	0.7
20110106 13:50	3.4	3.4	3.4	59	-3.9	5	8	202	0.0	1008.3	151	0.000	0.6
20110106 13:55	3.5	1.9	3.5	57	-4.2	6	11	180	0.0	1008.3	97	0.000	0.5
20110106 14:00	3.5	3.5	3.5	58	-4.0	5	8	158	0.0	1008.4	84	0.076	0.0
20110106 14:05	3.5	1.9	3.5	57	-4.2	6	11	158	0.0	1008.5	101	0.000	0.0
20110106 14:10	3.3	1.7	3.3	65	-2.6	6	11	315	0.0	1008.9	-100000	0.000	0.0
20110106 14:15	3.1	1.4	3.1	64	-3.1	6	10	315	0.0	1008.9	91	0.000	0.0
20110106 14:20	2.9	2.9	2.9	65	-3.0	2	3	315	0.0	1009.1	83	0.000	0.0
20110106 14:25	2.9	2.9	2.9	64	-3.2	0	5	315	0.0	1009.1	80	0.000	0.0
20110106 14:30	2.9	2.9	2.9	64	-3.2	2	3	315	0.0	1009.0	85	0.000	0.0
20110106 14:35	3.1	3.1	3.1	65	-2.9	2	3	315	0.0	1008.9	72	0.000	0.0
20110106 14:40	2.9	2.9	2.9	66	-2.8	2	5	338	0.0	1009.0	77	0.000	0.0
20110106 14:45	2.7	1.0	2.7	65	-3.2	6	8	45	0.0	1008.9	72	0.000	0.0
20110106 14:50	2.6	-0.2	2.6	66	-3.1	10	11	112	0.0	1008.7	67	0.000	0.0
20110106 14:55	2.4	0.1	2.4	66	-3.3	8	11	112	0.0	1008.6	57	0.000	0.0
20110106 15:00	2.5	0.7	2.5	65	-3.4	6	13	135	0.0	1008.6	50	0.051	0.0
20110106 15:05	2.6	2.6	2.6	65	-3.4	5	11	158	0.0	1008.6	43	0.000	0.0
20110106 15:10	2.7	2.7	2.7	65	-3.2	5	11	158	0.0	1008.7	41	0.000	0.0
20110106 15:15	2.8	2.8	2.8	62	-3.8	3	6	158	0.0	1008.8	44	0.000	0.0
20110106 15:20	2.9	2.9	2.9	62	-3.6	5	10	158	0.0	1009.0	46	0.000	0.0
20110106 15:25	3.1	3.1	3.1	63	-3.3	3	6	158	0.0	1009.3	45	0.000	0.0
20110106 15:30	3.1	3.1	3.1	64	-3.0	0	3	158	0.0	1009.1	44	0.000	0.0
20110106 15:35	3.1	3.1	3.1	65	-2.8	2	5	158	0.0	1009.2	39	0.000	0.0
20110106 15:40	3.0	3.0	3.0	64	-3.1	0	0	-100000	0.0	1009.3	39	0.000	0.0
20110106 15:45	2.9	2.9	2.9	66	-2.8	0	2	158	0.0	1009.4	34	0.000	0.0
20110106 15:50	2.9	2.9	2.9	66	-2.8	0	2	158	0.0	1009.3	31	0.000	0.0
20110106 15:55	2.9	2.9	2.9	66	-2.8	2	5	158	0.0	1009.3	27	0.000	0.0
20110106 16:00	2.9	2.9	2.9	65	-3.0	3	8	158	0.0	1009.2	22	0.025	0.0
20110106 16:05	2.8	1.1	2.8	64	-3.3	6	14	158	0.0	1009.1	19	0.000	0.0
20110106 16:10	2.8	2.8	2.8	64	-3.3	5	11	158	0.0	1009.2	16	0.000	0.0
20110106 16:15	2.8	1.1	2.8	63	-3.5	6	10	158	0.0	1009.3	12	0.000	0.0
20110106 16:20	2.8	2.8	2.8	64	-3.3	5	8	180	0.0	1009.3	9	0.000	0.0
20110106 16:25	2.8	2.8	2.8	65	-3.1	3	8	180	0.0	1009.2	6	0.000	0.0
20110106 16:30	2.8	2.8	2.8	65	-3.1	5	6	180	0.0	1009.2	0	0.000	0.0
20110106 16:35	2.8	2.8	2.8	65	-3.1	5	8	180	0.0	1009.2	0	0.000	0.0
20110106 16:40	2.8	2.8	2.8	66	-2.9	5	8	180	0.0	1009.0	0	0.000	0.0
20110106 16:45	2.8	2.8	2.8	67	-2.7	5	8	180	0.0	1009.0	0	0.000	0.0
20110106 16:50	2.8	2.8	2.8	66	-2.9	5	10	180	0.0	1009.0	0	0.000	0.0
20110106 16:55	2.9	2.9	2.9	66	-2.8	5	10	180	0.0	1009.1	0	0.000	0.0
20110106 17:00	3.0	3.0	3.0	66	-2.7	3	6	180	0.0	1009.1	0	0.025	0.0
20110106 17:05	3.1	3.1	3.1	66	-2.7	5	8	180	0.0	1009.0	0	0.000	0.0
20110106 17:10	3.1	3.1	3.1	66	-2.6	2	6	180	0.0	1008.9	0	0.000	0.0
20110106 17:15	3.2	3.2	3.2	66	-2.6	5	8	180	0.0	1008.9	0	0.000	0.0
20110106 17:20	3.2	3.2	3.2	66	-2.5	5	6	180	0.0	1008.7	0	0.000	0.0
20110106 17:25	3.2	1.5	3.2	66	-2.5	6	11	180	0.0	1008.4	0	0.000	0.0
20110106 17:30	3.2	3.2	3.2	67	-2.3	5	10	158	0.0	1008.2	0	0.000	0.0
20110106 17:35	3.2	0.6	3.2	66	-2.5	10	18	158	0.0	1008.0	0	0.000	0.0
20110106 17:40	3.3	1.2	3.3	66	-2.4	8	13	158	0.0	1007.9	0	0.000	0.0
20110106 17:45	3.4	1.7	3.4	66	-2.4	6	18	158	0.0	1007.9	0	0.000	0.0
20110106 17:50	3.4	1.7	3.4	66	-2.4	6	14	135	0.0	1008.0	0	0.000	0.0
20110106 17:55	3.3	3.3	3.3	67	-2.2	3	6	135	0.0	1008.0	0	0.000	0.0
20110106 18:00	3.3	3.3	3.3	67	-2.3	3	10	135	0.0	1008.0	0	0.025	0.0
20110106 18:05	3.3	1.6	3.3	66	-2.5	6	11	158	0.0	1008.2	0	0.000	0.0
20110106 18:10	3.3	1.2	3.3	66	-2.4	8	13	180	0.0	1008.3	737	0.000	0.0
20110106 18:15	3.4	1.3	3.4	65	-2.5	8	16	180	0.0	1008.4	-100000	0.000	0.0
20110106 18:20	3.5	0.6	3.5	65	-2.5	11	19	180	0.0	1008.6	-100000	0.000	0.0
20110106 18:25	3.5	1.0	3.5	65	-2.5	10	16	158	0.0	1008.7	0	0.000	0.0
20110106 18:30	3.4	0.9	3.4	65	-2.5	10	16	180	0.0	1008.7	0	0.000	0.0
20110106 18:35	3.3	0.8	3.3	66	-2.4	10	18	158	0.0	1008.7	0	0.000	0.0
20110106 18:40	3.2	1.0	3.2	66	-2.5	8	16	158	0.0	1008.6	0	0.000	0.0
20110106 18:45	3.1	1.4	3.1	66	-2.7	6	16	158	0.0	1008.5	0	0.000	0.0
20110106 18:50	3.0	0.8	3.0	66	-2.7	8	18	158	0.0	1008.5	0	0.000	0.0
20110106 18:55	2.9	1.2	2.9	67	-2.6	6	14	158	0.0	1008.2	0	0.000	0.0
20110106 19:00	2.8	1.1	2.8	68	-2.5	6	14	158	0.0	1008.1	0	0.025	0.0
20110106 19:05	2.7	2.7	2.7	68	-2.6	5	18	180	0.0	1008.3	0	0.000	0.0
20110106 19:10	2.7	2.7	2.7	68	-2.6	0	3	180	0.0	1008.4	0	0.000	0.0
20110106 19:15	2.8	2.8	2.8	69	-2.3	2	5	180	0.0	1008.4	0	0.000	0.0
20110106 19:20	2.8	2.8	2.8	69	-2.3	2	3	180	0.0	1008.3	0	0.000	0.0
20110106 19:25	2.8	2.8	2.8	69	-2.3	2	5	180	0.0	1008.5	0	0.000	0.0
20110106 19:30	2.7	2.7	2.7	71	-2.0	5	11	315	0.0	1008.8	0	0.000	0.0
20110106 19:35	2.5	0.7	2.5	74	-1.7	6	13	315	0.0	1009.1	0	0.000	0.0
20110106 19:40	2.3	0.5	2.3	74	-1.9	6	10	270	0.0	1009.1	0	0.000	0.0
20110106 19:45	2.3	2.3	2.3	74	-1.9	2	8	292	0.0	1008.9	0	0.000	0.0
20110106 19:50	2.3	2.3	2.3	74	-1.9	0	3	292	0.0	1008.8	0	0.000	0.0
20110106 19:55	2.3	2.3	2.3	74	-1.9	2	5	292	0.0	1009.0	0	0.000	0.0
20110106 20:00	2.3	2.3	2.3	75	-1.7	0	2	292	0.0	1009.3	0	0.025	0.0
20110106 20:05	2.2	0.4	2.2	75	-1.7	6	14	135	0.0	1009.0	0	0.000	0.0
20110106 20:10	2.2	-0.6	2.2	77	-1.4	10	26	292	0.0	1009.8	0	0.000	0.0
20110106 20:15	2.1	2.1	2.1	78	-1.4	5	10	112	0.0	1009.7	0	0.000	0.0
20110106 20:20	2.0	0.1	2.0	80	-1.1	6	16	315	0.0	1010.0	0	0.000	0.0
20110106 20:25	2.0	-0.8	2.0	80	-1.1	10	21	292	0.0	1010.1	0	0.000	0.0
20110106 20:30	2.1	2.1	2.1	80	-1.0	5	16	270	0.0	1010.5	0	0.000	0.0
20110106 20:35	2.2	0.3	2.2	80	-0.9	6	11	315	0.0	1010.4	0	0.000	0.0
20110106 20:40	2.2	2.2	2.2	80	-0.9	2	10	315	0.0	1010.4	0	0.000	0.0
20110106 20:45	2.2	2.2	2.2	80	-0.9	0	0	-100000	0.0	1010.4	0	0.000	0.0
20110106 20:50	2.2	2.2	2.2	81	-0.8	0	2	315	0.0	1010.5	0	0.000	0.0
20110106 20:55	2.2	2.2	2.2	81	-0.8	0	3	315	0.0	1010.3	0	0.000	0.0
20110106 21:00	2.1	2.1	2.1	82	-0.6	2	5	315	0.0	1010.4	0	0.025	0.0
20110106 21:05	2.1	2.1	2.1	82	-0.7	2	5	315	0.0	1010.3	0	0.000	0.0
20110106 21:10	2.1	2.1	2.1	82	-0.7	3	6	225	0.0	1010.1	0	0.000	0.0
20110106 21:15	1.9	1.9	1.9	82	-0.8	3	6	225	0.0	1010.4	0	0.000	0.0
20110106 21:20	2.0	2.0	2.0	83	-0.6	2	5	225	0.0	1010.4	0	0.000	0.0
20110106 21:25	2.0	2.0	2.0	83	-0.6	3	6	225	0.0	1010.5	0	0.000	0.0
20110106 21:30	2.1	2.1	2.1	83	-0.5	5	8	225	0.0	1010.4	0	0.000	0.0
20110106 21:35	2.1	0.2	2.1	83	-0.5	6	11	180	0.0	1010.2	0	0.000	0.0
20110106 21:40	2.1	2.1	2.1	83	-0.5	3	6	180	0.0	1010.3	0	0.000	0.0
20110106 21:45	2.1	0.3	2.1	83	-0.5	6	18	158	0.0	1010.1	0	0.000	0.0
20110106 21:50	2.2	2.2	2.2	83	-0.4	5	8	180	0.0	1010.1	0	0.000	0.0
20110106 21:55	2.2	0.4	2.2	83	-0.4	6	11	180	0.0	1010.3	0	0.000	0.0
20110106 22:00	2.2	0.4	2.2	83	-0.4	6	11	158	0.0	1010.2	0	0.000	0.0
20110106 22:05	2.2	0.4	2.2	83	-0.4	6	10	158	0.0	1010.0	0	0.000	0.0
20110106 22:10	2.3	2.3	2.3	83	-0.3	5	10	158	0.0	1009.9	0	0.000	0.0
20110106 22:15	2.4	0.6	2.4	83	-0.1	6	10	158	0.0	1009.9	0	0.000	0.0
20110106 22:20	2.6	0.8	2.6	83	-0.0	6	11	158	0.0	1010.0	-100000	0.000	0.0
20110106 22:25	2.8	1.0	2.8	82	0.0	6	10	180	0.0	1010.1	-100000	0.000	0.0
20110106 22:30	2.9	1.2	2.9	81	0.0	6	10	180	0.0	1010.1	0	0.000	0.0
20110106 22:35	3.0	1.3	3.0	81	0.1	6	11	180	0.0	1010.2	0	0.000	0.0
20110106 22:40	3.1	0.5	3.1	81	0.2	10	18	180	0.0	1010.0	0	0.000	0.0
20110106 22:45	3.2	0.6	3.2	81	0.2	10	16	202	0.0	1010.2	0	0.000	0.0
20110106 22:50	3.2	1.0	3.2	81	0.3	8	16	225	0.0	1010.2	0	0.000	0.0
20110106 22:55	3.3	1.2	3.3	81	0.4	8	14	225	0.0	1010.3	0	0.000	0.0
20110106 23:00	3.4	0.9	3.4	81	0.5	10	18	202	0.0	1010.3	0	0.025	0.0
20110106 23:05	3.4	1.3	3.4	81	0.5	8	16	202	0.0	1009.9	0	0.000	0.0
20110106 23:10	3.6	1.4	3.6	81	0.6	8	16	180	0.0	1009.9	0	0.000	0.0
20110106 23:15	3.7	2.1	3.7	81	0.7	6	11	180	0.0	1009.9	0	0.000	0.0
20110106 23:20	3.7	2.1	3.7	80	0.6	6	10	158	0.0	1010.0	0	0.000	0.0
20110106 23:25	3.7	1.6	3.7	80	0.6	8	14	158	0.0	1010.0	0	0.000	0.0
20110106 23:30	3.6	2.0	3.6	80	0.5	6	11	180	0.0	1010.2	0	0.000	0.0
20110106 23:35	3.6	1.4	3.6	81	0.6	8	14	180	0.0	1010.1	0	0.000	0.0
20110106 23:40	3.5	1.4	3.5	81	0.6	8	14	180	0.0	1010.4	0	0.000	0.0
20110106 23:45	3.5	1.9	3.5	81	0.6	6	13	180	0.0	1010.4	0	0.000	0.0
20110106 23:50	3.5	1.9	3.5	81	0.6	6	11	180	0.0	1010.4	0	0.000	0.0
20110106 23:55	3.5	3.5	3.5	81	0.6	5	10	180	0.0	1010.4	0	0.000	0.0



Please note the license to use and transfer of this data:
http://creativecommons.org/licenses/by-nc-sa/3.0/deed.en

Bitte beachten sie die Lizenz zur Verwertung und Weitergabe der Daten:
http://creativecommons.org/licenses/by-nc-sa/3.0/deed.de

zurück zur Übersicht der Archivdaten (Monats und Tagesdaten)

Cookies helfen bei der Bereitstellung von Inhalten. Durch die Nutzung dieser Seiten erklärst du dich damit einverstanden, dass Cookies auf deinem Rechner gespeichert werden. Weitere Information